createdAt,value
2023-03-19T00:01:50.879Z,32.88
2023-03-19T00:06:57.269Z,31.38
2023-03-19T00:12:03.702Z,32.33
2023-03-19T00:17:09.828Z,34.70
2023-03-19T00:22:16.329Z,33.53
2023-03-19T00:27:22.889Z,33.05
2023-03-19T00:32:29.945Z,32.58
2023-03-19T00:37:36.772Z,32.97
2023-03-19T00:42:43.327Z,34.92
2023-03-19T00:47:48.953Z,32.97
2023-03-19T00:52:55.378Z,33.42
2023-03-19T00:58:02.856Z,34.92
2023-03-19T01:03:09.542Z,29.80
2023-03-19T01:08:16.586Z,33.88
2023-03-19T01:13:22.390Z,35.55
2023-03-19T01:18:29.146Z,30.17
2023-03-19T01:23:36.112Z,33.08
2023-03-19T01:28:42.741Z,34.30
2023-03-19T01:33:50.624Z,35.55
2023-03-19T01:39:10.478Z,41.35
2023-03-19T01:44:38.645Z,38.67
2023-03-19T01:50:03.893Z,29.90
2023-03-19T01:55:14.342Z,37.38
2023-03-19T02:00:28.087Z,19.27
2023-03-19T02:05:36.043Z,31.55
2023-03-19T02:10:46.658Z,50.75
2023-03-19T02:15:54.069Z,44.53
2023-03-19T02:21:19.252Z,38.13
2023-03-19T02:31:40.722Z,16.98
2023-03-19T02:36:51.002Z,19.20
2023-03-19T02:41:59.460Z,31.90
2023-03-19T02:47:08.111Z,15.98
2023-03-19T02:57:21.921Z,24.85
2023-03-19T03:02:33.553Z,15.68
2023-03-19T03:07:39.711Z,14.93
2023-03-19T03:12:46.094Z,23.60
2023-03-19T03:17:52.613Z,12.77
2023-03-19T03:23:03.236Z,21.52
2023-03-19T03:28:10.407Z,13.40
2023-03-19T03:33:20.182Z,11.50
2023-03-19T03:38:26.903Z,16.88
2023-03-19T03:43:42.693Z,10.48
2023-03-19T03:48:55.879Z,15.18
2023-03-19T03:54:04.762Z,11.23
2023-03-19T03:59:12.194Z,12.23
2023-03-19T04:04:56.012Z,11.98
2023-03-19T04:10:15.355Z,12.50
2023-03-19T04:21:34.709Z,11.80
2023-03-19T04:26:41.740Z,23.25
2023-03-19T04:31:48.568Z,20.60
2023-03-19T04:36:55.426Z,11.13
2023-03-19T04:42:09.126Z,18.83
2023-03-19T04:47:22.470Z,18.77
2023-03-19T04:52:36.435Z,18.45
2023-03-19T04:57:44.879Z,11.10
2023-03-19T05:02:52.885Z,14.88
2023-03-19T05:13:31.127Z,11.13
2023-03-19T05:18:38.373Z,14.50
2023-03-19T05:23:59.038Z,9.85
2023-03-19T05:29:18.018Z,12.40
2023-03-19T05:35:36.237Z,14.23
2023-03-19T05:40:49.745Z,15.40
2023-03-19T05:46:07.682Z,14.02
2023-03-19T05:51:14.069Z,8.80
2023-03-19T05:56:26.049Z,10.68
2023-03-19T06:02:02.459Z,11.20
2023-03-19T06:07:09.705Z,9.35
2023-03-19T06:12:16.209Z,7.88
2023-03-19T06:17:22.620Z,10.40
2023-03-19T06:22:29.211Z,11.35
2023-03-19T06:27:36.081Z,9.75
2023-03-19T06:32:56.573Z,9.38
2023-03-19T06:38:02.990Z,10.82
2023-03-19T06:43:09.033Z,15.80
2023-03-19T06:48:15.324Z,11.80
2023-03-19T06:53:21.282Z,9.95
2023-03-19T06:58:28.258Z,7.88
2023-03-19T07:03:35.381Z,7.05
2023-03-19T07:08:42.468Z,7.82
2023-03-19T07:13:48.931Z,9.32
2023-03-19T07:18:55.272Z,11.43
2023-03-19T07:24:05.983Z,13.07
2023-03-19T07:29:12.635Z,12.00
2023-03-19T07:34:19.522Z,11.40
2023-03-19T07:39:25.702Z,12.13
2023-03-19T07:44:33.785Z,7.72
2023-03-19T07:49:40.717Z,8.25
2023-03-19T07:54:46.669Z,9.13
2023-03-19T07:59:53.426Z,11.27
2023-03-19T08:05:00.382Z,7.03
2023-03-19T08:10:08.488Z,14.43
2023-03-19T08:15:15.797Z,12.50
2023-03-19T08:20:25.448Z,14.50
2023-03-19T08:25:33.746Z,13.90
2023-03-19T08:30:57.775Z,9.65
2023-03-19T08:36:13.191Z,13.20
2023-03-19T08:41:38.503Z,13.27
2023-03-19T08:47:16.802Z,14.63
2023-03-19T08:52:24.010Z,15.27
2023-03-19T08:57:30.742Z,12.57
2023-03-19T09:02:46.601Z,12.18
2023-03-19T09:08:04.431Z,14.70
2023-03-19T09:13:11.017Z,12.80
2023-03-19T09:18:47.792Z,13.20
2023-03-19T09:23:54.095Z,17.38
2023-03-19T09:29:12.316Z,15.25
2023-03-19T09:34:18.505Z,14.25
2023-03-19T09:39:24.842Z,15.40
2023-03-19T09:45:05.650Z,9.48
2023-03-19T09:50:20.916Z,13.73
2023-03-19T09:55:30.163Z,16.30
2023-03-19T10:00:43.120Z,13.07
2023-03-19T10:06:06.362Z,16.55
2023-03-19T10:11:42.939Z,11.20
2023-03-19T10:16:54.374Z,17.27
2023-03-19T10:22:10.324Z,14.00
2023-03-19T10:27:23.114Z,15.48
2023-03-19T10:33:00.927Z,16.50
2023-03-19T10:38:26.252Z,17.65
2023-03-19T10:43:42.455Z,16.73
2023-03-19T10:48:53.303Z,11.55
2023-03-19T11:07:16.071Z,16.00
2023-03-19T11:12:33.674Z,12.68
2023-03-19T11:17:58.971Z,16.45
2023-03-19T11:23:13.743Z,9.65
2023-03-19T11:28:35.400Z,18.77
2023-03-19T11:33:48.242Z,18.95
2023-03-19T11:39:28.637Z,17.42
2023-03-19T11:45:01.745Z,15.98
2023-03-19T11:50:38.268Z,23.98
2023-03-19T11:56:10.211Z,19.02
2023-03-19T12:01:58.256Z,20.90
2023-03-19T12:07:40.880Z,18.85
2023-03-19T12:13:02.435Z,20.33
2023-03-19T12:18:34.215Z,18.23
2023-03-19T12:23:46.276Z,19.98
2023-03-19T12:28:55.967Z,17.55
2023-03-19T12:34:34.037Z,23.92
2023-03-19T12:40:17.369Z,22.98
2023-03-19T12:45:36.043Z,20.88
2023-03-19T12:50:52.672Z,13.82
2023-03-19T13:01:42.572Z,21.83
2023-03-19T13:07:27.935Z,18.00
2023-03-19T13:13:31.024Z,20.33
2023-03-19T13:19:00.544Z,13.07
2023-03-19T13:24:39.123Z,7.35
2023-03-19T13:30:22.024Z,11.38
2023-03-19T13:35:38.497Z,12.85
2023-03-19T13:40:51.318Z,10.73
2023-03-19T13:46:23.501Z,17.30
2023-03-19T13:51:34.693Z,12.15
2023-03-19T13:57:05.214Z,18.38
2023-03-19T14:02:36.035Z,12.73
2023-03-19T14:07:49.811Z,11.23
2023-03-19T14:13:19.045Z,14.40
2023-03-19T14:18:26.472Z,12.82
2023-03-19T14:23:42.829Z,8.23
2023-03-19T14:29:13.421Z,11.15
2023-03-19T14:34:37.151Z,8.25
2023-03-19T14:39:51.631Z,8.30
2023-03-19T14:45:21.872Z,18.88
2023-03-19T14:51:03.037Z,15.30
2023-03-19T14:56:39.569Z,17.63
2023-03-19T15:02:03.240Z,16.60
2023-03-19T15:07:25.969Z,12.40
2023-03-19T15:13:23.118Z,9.77
2023-03-19T15:18:30.410Z,8.02
2023-03-19T15:23:37.504Z,9.00
2023-03-19T15:28:56.224Z,13.93
2023-03-19T15:34:03.821Z,16.40
2023-03-19T15:39:14.291Z,6.45
2023-03-19T15:44:43.952Z,14.18
2023-03-19T15:50:07.341Z,16.45
2023-03-19T15:55:20.265Z,14.75
2023-03-19T16:00:47.755Z,8.38
2023-03-19T16:06:29.011Z,15.13
2023-03-19T16:11:41.170Z,11.68
2023-03-19T16:16:53.315Z,9.52
2023-03-19T16:22:02.678Z,8.02
2023-03-19T16:27:19.088Z,4.00
2023-03-19T16:38:08.567Z,13.15
2023-03-19T16:43:23.917Z,13.68
2023-03-19T16:48:30.682Z,11.67
2023-03-19T16:53:39.499Z,6.80
2023-03-19T16:58:47.359Z,10.38
2023-03-19T17:03:54.772Z,9.65
2023-03-19T17:09:04.528Z,14.23
2023-03-19T17:19:41.753Z,13.10
2023-03-19T17:24:50.097Z,8.35
2023-03-19T17:29:56.069Z,10.93
2023-03-19T17:35:02.682Z,13.93
2023-03-19T17:40:25.941Z,14.23
2023-03-19T17:45:32.338Z,13.63
2023-03-19T17:50:39.480Z,13.82
2023-03-19T17:55:46.333Z,8.90
2023-03-19T18:00:54.223Z,12.43
2023-03-19T18:06:00.009Z,9.43
2023-03-19T18:11:06.228Z,8.05
2023-03-19T18:16:29.431Z,12.45
2023-03-19T18:21:35.915Z,6.13
2023-03-19T18:26:42.598Z,10.77
2023-03-19T18:37:29.070Z,10.05
2023-03-19T18:42:34.716Z,11.48
2023-03-19T18:47:45.569Z,14.25
2023-03-19T18:52:54.520Z,13.48
2023-03-19T18:58:04.271Z,15.10
2023-03-19T19:03:13.802Z,11.95
2023-03-19T19:08:22.636Z,15.57
2023-03-19T19:13:33.902Z,15.48
2023-03-19T19:18:43.154Z,16.55
2023-03-19T19:23:49.878Z,13.77
2023-03-19T19:28:59.080Z,15.25
2023-03-19T19:34:05.395Z,13.88
2023-03-19T19:39:12.314Z,16.13
2023-03-19T19:44:23.893Z,16.38
2023-03-19T19:49:30.264Z,13.00
2023-03-19T19:54:36.482Z,11.02
2023-03-19T19:59:44.252Z,16.77
2023-03-19T20:04:50.318Z,13.23
2023-03-19T20:15:03.034Z,15.98
2023-03-19T20:20:23.052Z,15.93
2023-03-19T20:25:34.116Z,16.40
2023-03-19T20:30:43.432Z,16.38
2023-03-19T20:35:50.613Z,11.52
2023-03-19T20:41:03.579Z,16.52
2023-03-19T20:46:12.186Z,17.08
2023-03-19T20:51:24.869Z,18.27
2023-03-19T20:56:32.035Z,18.67
2023-03-19T21:01:38.508Z,17.52
2023-03-19T21:06:53.082Z,18.17
2023-03-19T21:12:01.612Z,18.48
2023-03-19T21:17:08.479Z,22.30
2023-03-19T21:22:23.767Z,24.00
2023-03-19T21:27:31.756Z,24.85
2023-03-19T21:32:39.314Z,22.52
2023-03-19T21:37:46.075Z,20.83
2023-03-19T21:42:57.511Z,23.15
2023-03-19T21:48:30.136Z,25.52
2023-03-19T21:53:37.259Z,22.00
2023-03-19T21:58:44.057Z,26.67
2023-03-19T22:03:51.110Z,28.13
2023-03-19T22:08:57.676Z,25.98
2023-03-19T22:14:31.782Z,24.70
2023-03-19T22:19:38.742Z,24.80
2023-03-19T22:24:45.862Z,25.20
2023-03-19T22:29:52.132Z,27.80
2023-03-19T22:34:59.292Z,26.40
2023-03-19T22:40:05.401Z,29.50
2023-03-19T22:45:27.121Z,26.27
2023-03-19T22:50:34.532Z,28.02
2023-03-19T22:55:40.704Z,25.38
2023-03-19T23:00:48.208Z,24.73
2023-03-19T23:06:12.324Z,24.48
2023-03-19T23:11:21.501Z,25.73
2023-03-19T23:16:29.809Z,25.27
2023-03-19T23:21:36.379Z,27.00
2023-03-19T23:26:47.738Z,25.30
2023-03-19T23:31:53.476Z,26.40
2023-03-19T23:37:01.111Z,27.05
2023-03-19T23:42:07.546Z,27.55
2023-03-19T23:47:13.605Z,27.90
2023-03-19T23:57:28.100Z,26.60
